createdAt,value
2022-12-23T00:00:52.623Z,21.83
2022-12-23T00:03:53.986Z,21.27
2022-12-23T00:06:55.368Z,19.60
2022-12-23T00:09:56.662Z,20.85
2022-12-23T00:12:57.971Z,20.10
2022-12-23T00:15:59.289Z,20.38
2022-12-23T00:19:00.641Z,19.53
2022-12-23T00:22:01.961Z,20.33
2022-12-23T00:25:03.341Z,20.10
2022-12-23T00:28:04.643Z,21.88
2022-12-23T00:31:05.949Z,20.90
2022-12-23T00:34:07.251Z,18.43
2022-12-23T00:37:08.557Z,19.45
2022-12-23T00:40:09.859Z,18.95
2022-12-23T00:43:11.184Z,18.35
2022-12-23T00:46:12.555Z,17.70
2022-12-23T00:49:13.926Z,19.63
2022-12-23T00:52:15.235Z,17.88
2022-12-23T00:55:16.549Z,18.35
2022-12-23T00:58:17.871Z,18.70
2022-12-23T01:01:19.221Z,19.02
2022-12-23T01:04:20.563Z,18.37
2022-12-23T01:07:21.859Z,17.88
2022-12-23T01:10:23.146Z,18.75
2022-12-23T01:13:24.476Z,17.73
2022-12-23T01:16:25.834Z,19.55
2022-12-23T01:19:27.163Z,18.97
2022-12-23T01:22:28.442Z,17.85
2022-12-23T01:25:29.757Z,17.90
2022-12-23T01:28:31.059Z,18.25
2022-12-23T01:31:32.408Z,16.83
2022-12-23T01:34:37.173Z,17.53
2022-12-23T01:37:38.921Z,18.88
2022-12-23T01:40:40.221Z,17.83
2022-12-23T01:43:41.539Z,15.93
2022-12-23T01:46:42.863Z,16.92
2022-12-23T01:49:44.152Z,18.13
2022-12-23T01:52:45.468Z,17.52
2022-12-23T01:55:46.835Z,18.33
2022-12-23T01:58:48.164Z,16.45
2022-12-23T02:01:49.596Z,16.83
2022-12-23T02:04:50.999Z,15.67
2022-12-23T02:07:52.319Z,17.05
2022-12-23T02:10:53.623Z,17.55
2022-12-23T02:13:54.915Z,19.52
2022-12-23T02:16:56.263Z,15.75
2022-12-23T02:19:57.584Z,15.93
2022-12-23T02:22:58.876Z,16.45
2022-12-23T02:26:00.185Z,15.60
2022-12-23T02:29:01.494Z,14.88
2022-12-23T02:32:02.778Z,16.88
2022-12-23T02:35:04.109Z,15.83
2022-12-23T02:38:05.400Z,15.77
2022-12-23T02:41:06.702Z,15.45
2022-12-23T02:44:07.987Z,16.23
2022-12-23T02:47:09.299Z,16.90
2022-12-23T02:50:10.649Z,16.20
2022-12-23T02:53:11.947Z,16.15
2022-12-23T02:56:13.271Z,16.88
2022-12-23T02:59:14.576Z,15.40
2022-12-23T03:02:15.959Z,17.85
2022-12-23T03:05:17.391Z,17.20
2022-12-23T03:08:18.692Z,15.90
2022-12-23T03:11:20.024Z,16.50
2022-12-23T03:14:21.330Z,17.55
2022-12-23T03:17:22.636Z,16.70
2022-12-23T03:20:23.947Z,16.70
2022-12-23T03:23:25.395Z,17.70
2022-12-23T03:26:26.691Z,16.77
2022-12-23T03:29:27.987Z,16.92
2022-12-23T03:32:29.280Z,15.95
2022-12-23T03:35:30.568Z,16.87
2022-12-23T03:38:31.869Z,15.55
2022-12-23T03:41:33.155Z,16.73
2022-12-23T03:44:34.456Z,15.93
2022-12-23T03:47:35.758Z,16.55
2022-12-23T03:50:37.055Z,16.27
2022-12-23T03:53:38.351Z,16.08
2022-12-23T03:56:39.665Z,16.77
2022-12-23T03:59:40.963Z,16.58
2022-12-23T04:02:42.373Z,15.38
2022-12-23T04:05:43.767Z,14.37
2022-12-23T04:08:45.057Z,16.35
2022-12-23T04:11:46.375Z,16.20
2022-12-23T04:14:47.681Z,15.40
2022-12-23T04:17:48.963Z,16.13
2022-12-23T04:20:50.306Z,15.27
2022-12-23T04:23:51.625Z,15.90
2022-12-23T04:26:52.907Z,15.90
2022-12-23T04:29:54.228Z,14.82
2022-12-23T04:32:55.521Z,16.27
2022-12-23T04:35:56.829Z,15.37
2022-12-23T04:38:58.111Z,14.30
2022-12-23T04:41:59.415Z,13.82
2022-12-23T04:45:00.730Z,15.82
2022-12-23T04:48:02.038Z,14.43
2022-12-23T04:51:03.353Z,14.73
2022-12-23T04:54:04.654Z,14.25
2022-12-23T04:57:05.938Z,14.70
2022-12-23T05:00:07.254Z,14.82
2022-12-23T05:03:08.630Z,14.93
2022-12-23T05:06:10.086Z,13.47
2022-12-23T05:09:11.404Z,15.50
2022-12-23T05:12:12.696Z,14.73
2022-12-23T05:15:14.009Z,14.52
2022-12-23T05:18:15.329Z,13.95
2022-12-23T05:21:16.636Z,13.47
2022-12-23T05:24:17.958Z,14.48
2022-12-23T05:27:19.238Z,13.20
2022-12-23T05:30:20.573Z,13.77
2022-12-23T05:33:21.917Z,14.35
2022-12-23T05:36:23.272Z,13.67
2022-12-23T05:39:24.570Z,14.52
2022-12-23T05:42:25.885Z,12.93
2022-12-23T05:45:27.292Z,12.98
2022-12-23T05:48:28.648Z,13.57
2022-12-23T05:51:29.955Z,13.83
2022-12-23T05:54:31.258Z,12.95
2022-12-23T05:57:32.565Z,12.57
2022-12-23T06:00:33.895Z,13.50
2022-12-23T06:03:35.390Z,13.10
2022-12-23T06:06:36.842Z,12.87
2022-12-23T06:09:38.147Z,15.65
2022-12-23T06:12:39.444Z,12.68
2022-12-23T06:15:40.734Z,13.77
2022-12-23T06:18:42.046Z,14.75
2022-12-23T06:21:43.329Z,13.83
2022-12-23T06:24:44.635Z,13.20
2022-12-23T06:27:45.934Z,13.93
2022-12-23T06:30:47.253Z,12.80
2022-12-23T06:33:48.561Z,13.18
2022-12-23T06:36:49.891Z,14.27
2022-12-23T06:39:51.185Z,14.10
2022-12-23T06:42:52.499Z,13.00
2022-12-23T06:45:53.840Z,12.68
2022-12-23T06:48:55.154Z,13.32
2022-12-23T06:51:56.460Z,13.67
2022-12-23T06:54:57.785Z,13.18
2022-12-23T06:57:59.123Z,12.95
2022-12-23T07:01:00.510Z,12.55
2022-12-23T07:04:01.838Z,13.77
2022-12-23T07:07:03.155Z,14.00
2022-12-23T07:10:04.453Z,13.63
2022-12-23T07:13:05.762Z,12.13
2022-12-23T07:16:07.160Z,14.27
2022-12-23T07:19:08.515Z,12.48
2022-12-23T07:22:09.871Z,13.27
2022-12-23T07:25:11.183Z,13.15
2022-12-23T07:28:12.480Z,12.63
2022-12-23T07:31:13.857Z,15.52
2022-12-23T07:34:15.205Z,14.75
2022-12-23T07:37:16.501Z,12.67
2022-12-23T07:40:17.828Z,13.48
2022-12-23T07:43:19.137Z,13.57
2022-12-23T07:46:20.449Z,13.07
2022-12-23T07:49:21.840Z,15.20
2022-12-23T07:52:23.126Z,13.40
2022-12-23T07:55:24.424Z,14.43
2022-12-23T07:58:25.740Z,14.07
2022-12-23T08:01:27.151Z,14.32
2022-12-23T08:04:28.590Z,14.60
2022-12-23T08:07:30.945Z,15.23
2022-12-23T08:10:32.251Z,14.88
2022-12-23T08:13:33.559Z,14.05
2022-12-23T08:16:41.233Z,16.05
2022-12-23T08:19:44.537Z,14.15
2022-12-23T08:22:45.858Z,14.87
2022-12-23T08:25:47.166Z,13.05
2022-12-23T08:28:48.468Z,14.20
2022-12-23T08:31:49.798Z,13.88
2022-12-23T08:34:51.101Z,15.20
2022-12-23T08:37:52.401Z,13.97
2022-12-23T08:40:53.703Z,13.82
2022-12-23T08:43:55.008Z,13.77
2022-12-23T08:46:56.298Z,13.70
2022-12-23T08:49:57.622Z,13.50
2022-12-23T08:52:58.988Z,13.67
2022-12-23T08:56:00.312Z,13.57
2022-12-23T08:59:01.644Z,14.52
2022-12-23T09:02:03.090Z,13.23
2022-12-23T09:05:04.480Z,12.82
2022-12-23T09:08:05.792Z,13.93
2022-12-23T09:11:07.103Z,12.93
2022-12-23T09:14:08.417Z,13.60
2022-12-23T09:17:09.749Z,12.75
2022-12-23T09:20:11.069Z,13.75
2022-12-23T09:23:12.375Z,12.27
2022-12-23T09:26:13.690Z,12.80
2022-12-23T09:29:14.998Z,13.00
2022-12-23T09:32:16.306Z,12.95
2022-12-23T09:35:17.644Z,14.25
2022-12-23T09:38:18.930Z,11.73
2022-12-23T09:41:20.246Z,11.00
2022-12-23T09:44:21.545Z,12.85
2022-12-23T09:47:22.849Z,12.77
2022-12-23T09:50:24.135Z,13.50
2022-12-23T09:53:25.442Z,12.70
2022-12-23T09:56:26.860Z,12.48
2022-12-23T09:59:28.171Z,13.88
2022-12-23T10:02:29.622Z,11.88
2022-12-23T10:05:31.077Z,11.73
2022-12-23T10:08:32.378Z,11.93
2022-12-23T10:11:33.680Z,12.50
2022-12-23T10:14:34.997Z,10.93
2022-12-23T10:17:36.303Z,12.13
2022-12-23T10:20:37.609Z,12.07
2022-12-23T10:23:38.910Z,11.10
2022-12-23T10:26:40.211Z,12.15
2022-12-23T10:29:41.536Z,11.63
2022-12-23T10:32:42.900Z,11.85
2022-12-23T10:35:44.226Z,11.45
2022-12-23T10:38:45.588Z,11.67
2022-12-23T10:41:47.008Z,12.07
2022-12-23T10:44:49.224Z,11.85
2022-12-23T10:47:51.767Z,11.48
2022-12-23T10:50:53.792Z,11.70
2022-12-23T10:53:55.118Z,10.60
2022-12-23T10:56:56.432Z,12.57
2022-12-23T10:59:57.732Z,10.20
2022-12-23T11:02:59.190Z,11.15
2022-12-23T11:06:00.608Z,10.57
2022-12-23T11:09:01.920Z,11.67
2022-12-23T11:12:03.220Z,10.77
2022-12-23T11:15:04.609Z,10.73
2022-12-23T11:18:05.933Z,9.95
2022-12-23T11:21:07.244Z,10.50
2022-12-23T11:24:08.548Z,10.97
2022-12-23T11:27:09.850Z,10.27
2022-12-23T11:30:11.151Z,9.27
2022-12-23T11:33:12.466Z,10.25
2022-12-23T11:36:13.780Z,9.07
2022-12-23T11:39:15.082Z,10.00
2022-12-23T11:42:16.407Z,10.45
2022-12-23T11:45:17.723Z,9.13
2022-12-23T11:48:19.019Z,10.65
2022-12-23T11:51:20.318Z,10.75
2022-12-23T11:54:21.678Z,9.80
2022-12-23T11:57:22.974Z,9.77
2022-12-23T12:00:24.308Z,9.70
2022-12-23T12:03:25.619Z,10.38
2022-12-23T12:06:27.009Z,8.93
2022-12-23T12:09:28.316Z,10.27
2022-12-23T12:12:29.642Z,9.25
2022-12-23T12:15:30.951Z,9.50
2022-12-23T12:18:32.256Z,10.63
2022-12-23T12:21:33.553Z,10.15
2022-12-23T12:24:34.859Z,9.13
2022-12-23T12:27:36.144Z,9.05
2022-12-23T12:30:38.170Z,9.75
2022-12-23T12:33:39.483Z,9.23
2022-12-23T12:36:40.939Z,10.02
2022-12-23T12:39:42.265Z,8.77
2022-12-23T12:42:43.626Z,8.93
2022-12-23T12:45:44.986Z,8.73
2022-12-23T12:48:46.315Z,9.00
2022-12-23T12:51:47.616Z,9.57
2022-12-23T12:54:49.359Z,9.13
2022-12-23T12:57:50.664Z,9.20
2022-12-23T13:00:52.003Z,9.75
2022-12-23T13:03:53.846Z,8.32
2022-12-23T13:06:55.168Z,8.65
2022-12-23T13:09:56.501Z,8.80
2022-12-23T13:12:57.885Z,8.60
2022-12-23T13:15:59.176Z,9.25
2022-12-23T13:19:00.480Z,8.48
2022-12-23T13:22:01.799Z,8.80
2022-12-23T13:25:03.119Z,8.27
2022-12-23T13:28:04.435Z,8.30
2022-12-23T13:31:05.751Z,9.05
2022-12-23T13:34:07.095Z,9.00
2022-12-23T13:37:08.397Z,8.10
2022-12-23T13:40:09.704Z,8.70
2022-12-23T13:43:11.014Z,8.35
2022-12-23T13:46:12.396Z,7.93
2022-12-23T13:49:13.725Z,8.57
2022-12-23T13:52:15.038Z,8.85
2022-12-23T13:55:16.340Z,7.77
2022-12-23T13:58:17.659Z,7.78
2022-12-23T14:01:18.982Z,7.85
2022-12-23T14:04:20.321Z,7.80
2022-12-23T14:07:21.620Z,8.98
2022-12-23T14:10:22.946Z,8.80
2022-12-23T14:13:24.240Z,7.65
2022-12-23T14:16:25.632Z,8.38
2022-12-23T14:19:27.043Z,7.57
2022-12-23T14:22:28.338Z,7.90
2022-12-23T14:25:29.644Z,7.60
2022-12-23T14:28:30.955Z,8.23
2022-12-23T14:31:32.346Z,8.68
2022-12-23T14:34:33.699Z,7.90
2022-12-23T14:37:35.026Z,8.50
2022-12-23T14:40:36.332Z,8.13
2022-12-23T14:43:38.339Z,7.35
2022-12-23T14:46:39.708Z,8.15
2022-12-23T14:49:41.463Z,7.28
2022-12-23T14:52:45.253Z,8.13
2022-12-23T14:55:46.710Z,8.27
2022-12-23T14:58:48.044Z,7.75
2022-12-23T15:01:49.652Z,7.45
2022-12-23T15:04:51.007Z,7.88
2022-12-23T15:07:52.301Z,9.52
2022-12-23T15:10:53.594Z,8.23
2022-12-23T15:13:54.903Z,8.98
2022-12-23T15:16:56.261Z,10.02
2022-12-23T15:19:57.647Z,9.93
2022-12-23T15:22:58.961Z,9.32
2022-12-23T15:26:00.369Z,10.33
2022-12-23T15:29:01.693Z,10.02
2022-12-23T15:32:03.027Z,12.75
2022-12-23T15:35:04.303Z,10.90
2022-12-23T15:38:05.653Z,11.65
2022-12-23T15:41:06.957Z,11.63
2022-12-23T15:44:08.281Z,11.23
2022-12-23T15:47:09.591Z,12.95
2022-12-23T15:50:11.042Z,11.63
2022-12-23T15:53:12.359Z,12.02
2022-12-23T15:56:13.664Z,10.20
2022-12-23T15:59:14.977Z,11.38
2022-12-23T16:02:49.657Z,15.23
2022-12-23T16:05:37.558Z,14.50
2022-12-23T16:08:38.871Z,13.88
2022-12-23T16:11:40.171Z,13.90
2022-12-23T16:14:41.504Z,14.07
2022-12-23T16:17:42.903Z,15.05
2022-12-23T16:20:44.232Z,14.93
2022-12-23T16:23:45.531Z,15.40
2022-12-23T16:26:46.855Z,13.73
2022-12-23T16:29:48.162Z,17.13
2022-12-23T16:32:49.569Z,16.73
2022-12-23T16:35:50.867Z,15.20
2022-12-23T16:38:52.177Z,14.90
2022-12-23T16:41:53.587Z,17.37
2022-12-23T16:44:54.902Z,15.35
2022-12-23T16:47:56.230Z,17.33
2022-12-23T16:50:57.556Z,16.15
2022-12-23T16:53:58.850Z,16.67
2022-12-23T16:57:00.152Z,15.03
2022-12-23T17:00:01.464Z,16.92
2022-12-23T17:03:02.840Z,17.23
2022-12-23T17:06:04.167Z,15.40
2022-12-23T17:09:05.470Z,16.30
2022-12-23T17:12:06.755Z,15.97
2022-12-23T17:15:08.062Z,15.35
2022-12-23T17:18:09.373Z,14.68
2022-12-23T17:21:10.692Z,16.02
2022-12-23T17:24:12.006Z,15.73
2022-12-23T17:27:13.322Z,17.03
2022-12-23T17:30:14.630Z,15.82
2022-12-23T17:33:15.933Z,15.38
2022-12-23T17:36:17.330Z,16.88
2022-12-23T17:39:18.701Z,15.73
2022-12-23T17:42:25.294Z,15.90
2022-12-23T17:45:27.438Z,16.20
2022-12-23T17:48:31.932Z,14.52
2022-12-23T17:51:33.441Z,15.43
2022-12-23T17:54:34.764Z,15.93
2022-12-23T17:57:36.063Z,17.13
2022-12-23T18:00:38.440Z,15.00
2022-12-23T18:03:39.799Z,15.40
2022-12-23T18:06:41.114Z,15.35
2022-12-23T18:09:42.446Z,14.90
2022-12-23T18:12:43.746Z,16.83
2022-12-23T18:15:45.075Z,15.50
2022-12-23T18:18:47.179Z,13.82
2022-12-23T18:21:48.643Z,15.68
2022-12-23T18:24:53.827Z,13.88
2022-12-23T18:27:58.404Z,14.50
2022-12-23T18:30:59.760Z,14.77
2022-12-23T18:34:01.079Z,13.30
2022-12-23T18:37:02.448Z,14.02
2022-12-23T18:40:03.725Z,15.15
2022-12-23T18:43:05.018Z,14.23
2022-12-23T18:46:06.358Z,14.73
2022-12-23T18:49:07.706Z,14.63
2022-12-23T18:52:08.996Z,14.60
2022-12-23T18:55:10.314Z,14.93
2022-12-23T18:58:11.605Z,14.80
2022-12-23T19:01:12.996Z,14.80
2022-12-23T19:04:14.335Z,14.88
2022-12-23T19:07:15.621Z,13.57
2022-12-23T19:10:16.940Z,14.50
2022-12-23T19:13:18.232Z,16.07
2022-12-23T19:16:19.613Z,15.55
2022-12-23T19:19:21.019Z,14.35
2022-12-23T19:22:22.374Z,14.95
2022-12-23T19:25:23.736Z,15.48
2022-12-23T19:28:25.083Z,14.03
2022-12-23T19:31:26.414Z,14.68
2022-12-23T19:34:27.767Z,15.35
2022-12-23T19:37:29.080Z,15.75
2022-12-23T19:40:30.477Z,14.93
2022-12-23T19:43:31.792Z,13.63
2022-12-23T19:46:33.168Z,13.98
2022-12-23T19:49:34.479Z,14.25
2022-12-23T19:52:35.782Z,14.68
2022-12-23T19:55:37.087Z,14.00
2022-12-23T19:58:38.431Z,15.23
2022-12-23T20:01:39.847Z,14.00
2022-12-23T20:04:41.216Z,14.45
2022-12-23T20:07:43.219Z,15.05
2022-12-23T20:10:44.893Z,14.05
2022-12-23T20:13:46.501Z,15.67
2022-12-23T20:16:47.883Z,16.25
2022-12-23T20:19:49.241Z,14.48
2022-12-23T20:22:50.546Z,15.40
2022-12-23T20:25:51.874Z,15.77
2022-12-23T20:28:53.199Z,14.73
2022-12-23T20:31:54.507Z,15.73
2022-12-23T20:34:55.996Z,15.80
2022-12-23T20:37:57.337Z,15.52
2022-12-23T20:40:58.677Z,15.20
2022-12-23T20:47:21.402Z,15.60
2022-12-23T20:50:22.713Z,14.13
2022-12-23T20:53:24.138Z,14.77
2022-12-23T20:56:25.526Z,14.52
2022-12-23T20:59:26.876Z,14.77
2022-12-23T21:02:28.326Z,13.90
2022-12-23T21:05:29.657Z,15.05
2022-12-23T21:08:30.984Z,13.77
2022-12-23T21:11:32.296Z,14.93
2022-12-23T21:14:33.664Z,14.57
2022-12-23T21:17:34.958Z,14.77
2022-12-23T21:20:36.279Z,13.82
2022-12-23T21:23:37.585Z,15.57
2022-12-23T21:26:38.918Z,14.65
2022-12-23T21:29:40.253Z,13.17
2022-12-23T21:32:41.602Z,13.57
2022-12-23T21:35:42.906Z,15.13
2022-12-23T21:38:44.206Z,14.88
2022-12-23T21:41:45.516Z,13.73
2022-12-23T21:44:46.823Z,13.33
2022-12-23T21:47:48.155Z,14.02
2022-12-23T21:50:49.442Z,13.68
2022-12-23T21:53:50.760Z,14.18
2022-12-23T21:56:52.074Z,15.82
2022-12-23T21:59:53.373Z,12.73
2022-12-23T22:02:54.694Z,13.07
2022-12-23T22:05:56.010Z,12.38
2022-12-23T22:08:57.333Z,13.98
2022-12-23T22:11:58.664Z,12.95
2022-12-23T22:14:59.977Z,13.07
2022-12-23T22:18:01.293Z,14.18
2022-12-23T22:21:02.590Z,13.25
2022-12-23T22:24:03.918Z,12.38
2022-12-23T22:27:05.256Z,13.40
2022-12-23T22:30:06.577Z,12.37
2022-12-23T22:33:07.931Z,12.93
2022-12-23T22:36:09.223Z,13.90
2022-12-23T22:39:14.202Z,13.27
2022-12-23T22:42:19.006Z,12.10
2022-12-23T22:45:20.321Z,12.23
2022-12-23T22:48:21.695Z,11.18
2022-12-23T22:51:23.005Z,11.50
2022-12-23T22:54:24.296Z,11.13
2022-12-23T22:57:25.607Z,11.45
2022-12-23T23:00:26.930Z,10.67
2022-12-23T23:03:28.223Z,11.85
2022-12-23T23:06:29.561Z,12.20
2022-12-23T23:09:30.912Z,12.32
2022-12-23T23:12:32.236Z,11.90
2022-12-23T23:15:33.560Z,11.47
2022-12-23T23:18:34.872Z,10.63
2022-12-23T23:21:36.202Z,10.30
2022-12-23T23:24:37.523Z,10.85
2022-12-23T23:27:38.862Z,11.27
2022-12-23T23:30:40.164Z,11.17
2022-12-23T23:33:41.476Z,10.93
2022-12-23T23:36:42.928Z,9.93
2022-12-23T23:39:44.286Z,11.02
2022-12-23T23:42:45.637Z,10.93
2022-12-23T23:45:47.001Z,10.03
2022-12-23T23:48:48.319Z,10.45
2022-12-23T23:51:49.643Z,10.23
2022-12-23T23:54:50.994Z,8.95
2022-12-23T23:57:52.296Z,11.45
